EmailTwitter


Surface observations / Quebec / CYUL (71627)

Regions: Quebec | Canada | USA | Europe | France | UK | Elsewhere
Station
Display
Info & Location for CYUL (71627) | Help decoding METAR

Weather Conditions observed on 2017/11/20 at 11:00 UTC at MONTREAL INTL A, QB (CYUL)

Sky conditions: overcast.

Obstruction(s) to Vision: showers in the vicinity.

Temperature: -6.0 Celsius.

Dewpoint: -12.0 Celsius.

Relative Humidity: 63%

Windchill Factor: -14.

Windchill Factor (Gusts): -16.

Winds: West at 31 km/h or 17 knots.

Gust: 46 km/h or 25 knots.

Mean Sea level Pressure: 100.93 kilopascals.

Altimeter Setting (QNH): 100.91 kilopascals or 29.80 inches of mercury.

Horizontal visibility: 15.00 statute miles or 24.00 kilometers.

Height of the Ceiling: 1067 metres ( 3500 feet ).

Coded METAR:

CYUL 201100Z 28017G25KT 15SM VCSH FEW023 OVC035 M06/M12 A2980 RMK SC1SC7 SLP093=